Главная страница
METAR-TAF:

METAR-TAF

Аэропорты :

Синоп, Турция

широта: 42-00-57N, долгота: 035-03-59E, высота над уровнем моря: 7 м

Текущие метеонаблюдения

Эта сводка был подготовлена 58 минут назад, в 01:50 UTC
Ветер 3 Узел от южный
Температура 17°C
Влажность 82%
Давление 1014 hPa
Видимость 10 км и более
Нет облачности ниже 1500 м, и нет кучево-дождевой облачности

METAR: LTCM 210150Z 18003KT CAVOK 17/14 Q1014

Время: 05:48 (02:48 UTC)

Прогноз

Эта сводка был подготовлена 1 час и 8 минут назад, в 01:40 UTC
Прогноз действительный с 21-го 03 UTC до 21-го 12 UTC
Ветер 8 Узел от западный-юго-западный
Видимость 10 км и более
Нет облачности ниже 1500 м, и нет кучево-дождевой облачности

TAF: LTCM 210140Z 2103/2112 25008KT CAVOK

Метеонаблюдения и прогнозы для более 4000 аэропортов (сводки METAR и TAF).

Имеющиеся станции представлены на карте желтыми и красными точками.

Чтобы увидеть название станции, наведите на нее мышь.

Затем щелкните, чтобы увидеть метеонаблюдения и метеопрогнозы.

Управление картой: чтобы увеличить масштаб, щелкните зеленые кнопки с черным крестиком; чтобы уменьшить масштаб, щелкните зеленую кнопку с тире; для просмотра соседних карт щелкайте зеленые стрелки.


METAR-TAF: